Time;durP1;ratioP1;P1;durP2;ratioP2;P2;SDS_P1;SDS_P2;PMS_P1;PMS_P2;Temp;Humidity;BMP_temperature;BMP_pressure;BME280_temperature;BME280_humidity;BME280_pressure;Samples;Min_cycle;Max_cycle;Signal;HPM_P1;HPM_P2
2023/09/05 00:00:01;;;;;;;3.25;2.00;;;;;;;;;;5055850;28;20021;-60
2023/09/05 00:02:27;;;;;;;2.55;1.80;;;;;;;;;;5054669;28;20025;-61
2023/09/05 00:04:56;;;;;;;2.05;1.30;;;;;;;;;;5055102;28;20045;-61
2023/09/05 00:07:22;;;;;;;2.85;1.80;;;;;;;;;;5054562;28;20049;-60
2023/09/05 00:09:49;;;;;;;2.30;1.50;;;;;;;;;;5055110;28;20065;-62
2023/09/05 00:12:14;;;;;;;2.92;1.52;;;;;;;;;;5054449;28;20086;-61
2023/09/05 00:14:42;;;;;;;3.22;2.13;;;;;;;;;;5054620;28;20112;-61
2023/09/05 00:17:08;;;;;;;3.20;1.67;;;;;;;;;;5054422;28;20377;-61
2023/09/05 00:19:34;;;;;;;2.22;1.52;;;;;;;;;;5054686;28;20025;-61
2023/09/05 00:22:00;;;;;;;2.65;1.50;;;;;;;;;;5054313;28;20024;-60
2023/09/05 00:24:36;;;;;;;2.22;1.50;;;;;;;;;;5054218;28;20355;-61
2023/09/05 00:27:03;;;;;;;2.63;1.73;;;;;;;;;;5054777;28;20095;-61
2023/09/05 00:29:30;;;;;;;2.47;1.58;;;;;;;;;;5054898;28;20025;-61
2023/09/05 00:31:59;;;;;;;2.60;1.58;;;;;;;;;;5054083;28;20036;-60
2023/09/05 00:34:26;;;;;;;2.85;1.73;;;;;;;;;;5053987;28;20510;-61
2023/09/05 00:36:52;;;;;;;2.72;1.50;;;;;;;;;;5053709;28;20479;-61
2023/09/05 00:39:19;;;;;;;2.70;1.67;;;;;;;;;;5054852;28;20071;-61
2023/09/05 00:41:45;;;;;;;3.63;1.40;;;;;;;;;;5053891;28;20079;-61
2023/09/05 00:44:14;;;;;;;2.10;1.42;;;;;;;;;;5054336;28;20055;-61
2023/09/05 00:46:43;;;;;;;5.45;1.85;;;;;;;;;;5053844;28;20386;-60
2023/09/05 00:49:10;;;;;;;2.88;2.03;;;;;;;;;;5054379;28;20032;-61
2023/09/05 00:51:37;;;;;;;2.72;1.63;;;;;;;;;;5053697;28;20025;-60
2023/09/05 00:54:04;;;;;;;2.30;1.27;;;;;;;;;;5054579;28;20358;-61
2023/09/05 00:56:30;;;;;;;2.90;1.67;;;;;;;;;;5054227;28;20029;-61
2023/09/05 00:58:56;;;;;;;2.35;1.35;;;;;;;;;;5053940;28;20359;-61
2023/09/05 01:01:22;;;;;;;4.90;1.90;;;;;;;;;;5054476;28;20029;-62
2023/09/05 01:03:48;;;;;;;3.75;1.92;;;;;;;;;;5053653;28;20025;-62
2023/09/05 01:06:22;;;;;;;1.98;1.13;;;;;;;;;;5053446;28;20070;-60
2023/09/05 01:08:53;;;;;;;2.33;1.38;;;;;;;;;;5054304;28;20063;-60
2023/09/05 01:11:19;;;;;;;3.08;1.52;;;;;;;;;;5053879;28;20021;-60
2023/09/05 01:13:45;;;;;;;3.70;1.80;;;;;;;;;;5053261;28;20025;-60
2023/09/05 01:16:11;;;;;;;2.42;1.52;;;;;;;;;;5053520;28;20366;-60
2023/09/05 01:18:40;;;;;;;4.15;2.33;;;;;;;;;;5053465;28;20021;-59
2023/09/05 01:21:24;;;;;;;2.75;1.55;;;;;;;;;;5053697;28;20490;-59
2023/09/05 01:23:58;;;;;;;3.15;1.95;;;;;;;;;;5053905;28;20116;-60
2023/09/05 01:26:24;;;;;;;2.70;1.73;;;;;;;;;;5053959;28;20048;-60
2023/09/05 01:28:52;;;;;;;3.40;1.92;;;;;;;;;;5053791;28;20044;-60
2023/09/05 01:31:18;;;;;;;2.55;1.60;;;;;;;;;;5053360;28;20356;-59
2023/09/05 01:33:44;;;;;;;4.18;2.08;;;;;;;;;;5053336;28;20026;-60
2023/09/05 01:36:10;;;;;;;4.50;1.65;;;;;;;;;;5053169;28;20029;-60
2023/09/05 01:38:37;;;;;;;2.55;1.73;;;;;;;;;;5053816;28;20029;-59
2023/09/05 01:41:02;;;;;;;2.80;1.90;;;;;;;;;;5054092;28;20362;-60
2023/09/05 01:43:28;;;;;;;2.40;1.70;;;;;;;;;;5053178;28;20025;-60
2023/09/05 01:45:54;;;;;;;3.47;1.80;;;;;;;;;;5053083;28;20017;-60
2023/09/05 01:48:20;;;;;;;3.65;1.70;;;;;;;;;;5053173;28;20108;-60
2023/09/05 01:50:46;;;;;;;3.38;1.70;;;;;;;;;;5053171;28;20033;-60
2023/09/05 01:53:12;;;;;;;3.17;1.60;;;;;;;;;;5053102;28;20025;-60
2023/09/05 01:55:38;;;;;;;2.40;1.65;;;;;;;;;;5053853;28;20032;-59
2023/09/05 01:58:04;;;;;;;2.40;1.52;;;;;;;;;;5053091;28;20067;-60
2023/09/05 02:00:30;;;;;;;2.80;1.92;;;;;;;;;;5053892;28;20036;-60
2023/09/05 02:02:56;;;;;;;3.08;2.08;;;;;;;;;;5055008;28;20029;-60
2023/09/05 02:05:22;;;;;;;2.88;1.48;;;;;;;;;;5056832;28;20048;-60
2023/09/05 02:07:48;;;;;;;2.65;1.40;;;;;;;;;;5057338;28;20025;-59
2023/09/05 02:10:14;;;;;;;3.17;2.03;;;;;;;;;;5057018;28;20055;-60
2023/09/05 02:12:44;;;;;;;2.33;1.58;;;;;;;;;;5056710;28;20017;-59
2023/09/05 02:15:10;;;;;;;3.20;1.92;;;;;;;;;;5057270;28;20029;-60
2023/09/05 02:17:36;;;;;;;2.75;1.63;;;;;;;;;;5056259;28;20551;-59
2023/09/05 02:20:03;;;;;;;2.10;1.45;;;;;;;;;;5057468;28;20083;-59
2023/09/05 02:22:29;;;;;;;2.13;1.58;;;;;;;;;;5057059;28;20071;-60
2023/09/05 02:24:55;;;;;;;3.22;1.90;;;;;;;;;;5056491;28;20025;-59
2023/09/05 02:27:21;;;;;;;2.80;1.80;;;;;;;;;;5056432;28;20021;-59
2023/09/05 02:29:49;;;;;;;2.50;1.38;;;;;;;;;;5056987;28;20036;-59
2023/09/05 02:32:17;;;;;;;2.55;1.55;;;;;;;;;;5056644;28;20468;-59
2023/09/05 02:34:43;;;;;;;4.13;1.65;;;;;;;;;;5057105;28;20029;-60
2023/09/05 02:37:09;;;;;;;2.63;1.75;;;;;;;;;;5056155;28;20119;-60
2023/09/05 02:39:35;;;;;;;2.55;1.42;;;;;;;;;;5056264;28;20029;-60
2023/09/05 02:42:01;;;;;;;3.38;1.83;;;;;;;;;;5056208;28;20100;-60
2023/09/05 02:44:26;;;;;;;2.65;1.75;;;;;;;;;;5056421;28;20526;-59
2023/09/05 02:46:52;;;;;;;3.80;1.95;;;;;;;;;;5056101;28;20017;-60
2023/09/05 02:49:18;;;;;;;3.13;1.63;;;;;;;;;;5056523;28;20029;-59
2023/09/05 02:51:44;;;;;;;1.77;1.05;;;;;;;;;;5056042;28;20074;-59
2023/09/05 02:54:10;;;;;;;2.97;1.80;;;;;;;;;;5056552;28;20021;-59
2023/09/05 02:56:36;;;;;;;3.08;1.60;;;;;;;;;;5055893;28;20024;-60
2023/09/05 02:59:02;;;;;;;2.65;1.65;;;;;;;;;;5056269;28;20036;-59
2023/09/05 03:01:28;;;;;;;2.50;1.85;;;;;;;;;;5055882;28;20112;-59
2023/09/05 03:03:54;;;;;;;4.05;1.27;;;;;;;;;;5055757;28;20060;-60
2023/09/05 03:06:20;;;;;;;4.07;2.00;;;;;;;;;;5055785;28;20013;-60
2023/09/05 03:08:46;;;;;;;2.20;1.27;;;;;;;;;;5056047;28;20384;-60
2023/09/05 03:11:16;;;;;;;3.50;1.75;;;;;;;;;;5055690;28;20017;-59
2023/09/05 03:13:42;;;;;;;3.35;1.35;;;;;;;;;;5055358;28;20020;-60
2023/09/05 03:16:08;;;;;;;2.15;1.08;;;;;;;;;;5055369;28;20017;-60
2023/09/05 03:18:34;;;;;;;2.83;1.73;;;;;;;;;;5055517;28;20332;-60
2023/09/05 03:21:00;;;;;;;4.47;1.98;;;;;;;;;;5055819;28;20021;-60
2023/09/05 03:23:26;;;;;;;2.67;1.95;;;;;;;;;;5055358;28;20029;-60
2023/09/05 03:25:52;;;;;;;3.53;1.67;;;;;;;;;;5056109;28;20382;-59
2023/09/05 03:28:19;;;;;;;3.22;1.75;;;;;;;;;;5055337;28;20017;-60
2023/09/05 03:30:45;;;;;;;2.13;1.73;;;;;;;;;;5055502;28;20463;-60
2023/09/05 03:33:11;;;;;;;3.78;1.42;;;;;;;;;;5055207;28;20032;-60
2023/09/05 03:35:37;;;;;;;3.95;2.10;;;;;;;;;;5055760;28;20025;-59
2023/09/05 03:38:05;;;;;;;3.75;2.28;;;;;;;;;;5055619;28;20103;-60
2023/09/05 03:40:31;;;;;;;3.67;1.80;;;;;;;;;;5055944;28;20086;-60
2023/09/05 03:42:57;;;;;;;2.97;1.73;;;;;;;;;;5054622;28;20017;-59
2023/09/05 03:45:23;;;;;;;3.60;1.85;;;;;;;;;;5054901;28;20025;-59
2023/09/05 03:47:49;;;;;;;3.00;1.92;;;;;;;;;;5055474;28;20025;-60
2023/09/05 03:50:17;;;;;;;3.00;1.65;;;;;;;;;;5055244;28;20162;-60
2023/09/05 03:52:43;;;;;;;2.55;1.58;;;;;;;;;;5055601;28;20390;-60
2023/09/05 03:55:09;;;;;;;2.75;1.40;;;;;;;;;;5054832;28;20025;-59
2023/09/05 03:57:35;;;;;;;3.17;1.70;;;;;;;;;;5055012;28;20024;-60
2023/09/05 04:00:01;;;;;;;2.85;1.50;;;;;;;;;;5055324;28;20036;-59
2023/09/05 04:02:27;;;;;;;2.80;1.52;;;;;;;;;;5055182;28;20056;-60
2023/09/05 04:04:55;;;;;;;3.10;1.95;;;;;;;;;;5054996;28;20424;-60
2023/09/05 04:07:22;;;;;;;2.92;1.65;;;;;;;;;;5054597;28;20025;-59
2023/09/05 04:09:48;;;;;;;2.47;1.85;;;;;;;;;;5055106;28;20103;-60
2023/09/05 04:12:14;;;;;;;3.47;1.83;;;;;;;;;;5054554;28;20486;-59
2023/09/05 04:14:40;;;;;;;2.35;1.50;;;;;;;;;;5055036;28;20024;-60
2023/09/05 04:17:06;;;;;;;3.15;1.77;;;;;;;;;;5054981;28;20079;-60
2023/09/05 04:19:32;;;;;;;2.97;2.08;;;;;;;;;;5054752;28;20033;-60
2023/09/05 04:21:58;;;;;;;3.15;1.92;;;;;;;;;;5055090;28;20422;-60
2023/09/05 04:24:24;;;;;;;2.85;1.70;;;;;;;;;;5054328;28;20096;-59
2023/09/05 04:26:50;;;;;;;3.20;2.22;;;;;;;;;;5054755;28;20041;-60
2023/09/05 04:29:19;;;;;;;4.22;1.98;;;;;;;;;;5054745;28;20036;-60
2023/09/05 04:31:45;;;;;;;2.67;1.45;;;;;;;;;;5054344;28;20107;-60
2023/09/05 04:34:11;;;;;;;2.20;1.50;;;;;;;;;;5054997;28;20056;-59
2023/09/05 04:36:37;;;;;;;3.03;1.88;;;;;;;;;;5054029;28;20041;-60
2023/09/05 04:39:03;;;;;;;4.40;1.65;;;;;;;;;;5055220;28;20025;-60
2023/09/05 04:41:29;;;;;;;3.00;1.77;;;;;;;;;;5054060;28;20032;-60
2023/09/05 04:43:55;;;;;;;2.55;1.83;;;;;;;;;;5053939;28;20370;-60
2023/09/05 04:46:22;;;;;;;4.25;1.73;;;;;;;;;;5054551;28;20025;-60
2023/09/05 04:48:49;;;;;;;4.00;1.88;;;;;;;;;;5054409;28;20079;-59
2023/09/05 04:51:15;;;;;;;2.78;1.70;;;;;;;;;;5053871;28;20021;-59
2023/09/05 04:53:41;;;;;;;2.65;1.65;;;;;;;;;;5053834;28;20029;-59
2023/09/05 04:56:07;;;;;;;3.08;1.67;;;;;;;;;;5054156;28;20021;-60
2023/09/05 04:58:33;;;;;;;2.92;1.75;;;;;;;;;;5053461;28;20453;-60
2023/09/05 05:01:02;;;;;;;2.60;1.50;;;;;;;;;;5054317;28;20120;-60
2023/09/05 05:03:29;;;;;;;2.58;1.77;;;;;;;;;;5053540;28;20025;-60
2023/09/05 05:05:55;;;;;;;2.72;1.60;;;;;;;;;;5053621;28;20025;-60
2023/09/05 05:08:21;;;;;;;2.03;1.25;;;;;;;;;;5053567;28;20079;-59
2023/09/05 05:10:47;;;;;;;3.83;2.05;;;;;;;;;;5053731;28;20119;-60
2023/09/05 05:13:13;;;;;;;2.40;1.92;;;;;;;;;;5053530;28;20033;-60
2023/09/05 05:15:39;;;;;;;3.33;1.80;;;;;;;;;;5053539;28;20062;-60
2023/09/05 05:18:05;;;;;;;2.53;1.33;;;;;;;;;;5053776;28;20075;-60
2023/09/05 05:20:31;;;;;;;2.47;1.45;;;;;;;;;;5054054;28;20021;-60
2023/09/05 05:22:57;;;;;;;4.10;2.00;;;;;;;;;;5053438;28;20025;-60
2023/09/05 05:25:23;;;;;;;2.80;1.73;;;;;;;;;;5053489;28;20055;-60
2023/09/05 05:27:49;;;;;;;2.60;1.88;;;;;;;;;;5053658;28;20427;-59
2023/09/05 05:30:15;;;;;;;2.97;2.03;;;;;;;;;;5053870;28;20043;-60
2023/09/05 05:32:41;;;;;;;2.22;1.48;;;;;;;;;;5053254;28;20112;-60
2023/09/05 05:35:08;;;;;;;2.38;1.50;;;;;;;;;;5053359;28;20021;-60
2023/09/05 05:37:34;;;;;;;2.75;2.03;;;;;;;;;;5054468;28;20417;-60
2023/09/05 05:40:00;;;;;;;2.67;1.90;;;;;;;;;;5057679;28;20020;-60
2023/09/05 05:42:26;;;;;;;2.65;1.80;;;;;;;;;;5057395;28;20017;-60
2023/09/05 05:44:52;;;;;;;5.03;1.98;;;;;;;;;;5057162;28;20017;-60
2023/09/05 05:47:18;;;;;;;2.22;1.30;;;;;;;;;;5057216;28;20025;-60
2023/09/05 05:49:44;;;;;;;1.73;1.00;;;;;;;;;;5057380;28;20086;-60
2023/09/05 05:52:10;;;;;;;2.80;1.60;;;;;;;;;;5057689;28;20103;-60
2023/09/05 05:54:36;;;;;;;2.95;1.98;;;;;;;;;;5056833;28;20024;-60
2023/09/05 05:57:02;;;;;;;2.13;1.50;;;;;;;;;;5057049;28;20025;-60
2023/09/05 05:59:28;;;;;;;2.70;1.65;;;;;;;;;;5057663;28;20371;-60
2023/09/05 06:01:55;;;;;;;2.70;1.70;;;;;;;;;;5056997;28;20427;-60
2023/09/05 06:04:22;;;;;;;3.00;1.63;;;;;;;;;;5056959;28;20025;-60
2023/09/05 06:06:49;;;;;;;4.93;2.25;;;;;;;;;;5056902;28;20033;-60
2023/09/05 06:09:18;;;;;;;3.08;2.10;;;;;;;;;;5057632;28;20037;-60
2023/09/05 06:11:44;;;;;;;3.60;1.80;;;;;;;;;;5057119;28;20027;-60
2023/09/05 06:14:10;;;;;;;3.25;1.67;;;;;;;;;;5057088;28;20425;-59
2023/09/05 06:16:36;;;;;;;3.78;1.52;;;;;;;;;;5056801;28;20071;-60
2023/09/05 06:19:02;;;;;;;3.28;1.70;;;;;;;;;;5056766;28;20474;-60
2023/09/05 06:21:28;;;;;;;5.40;2.10;;;;;;;;;;5057233;28;20079;-60
2023/09/05 06:23:54;;;;;;;6.70;1.98;;;;;;;;;;5056729;28;20104;-60
2023/09/05 06:26:20;;;;;;;2.28;1.55;;;;;;;;;;5056597;28;20021;-60
2023/09/05 06:28:47;;;;;;;2.72;1.42;;;;;;;;;;5056462;28;20021;-60
2023/09/05 06:31:13;;;;;;;3.40;2.10;;;;;;;;;;5056551;28;20021;-60
2023/09/05 06:33:39;;;;;;;3.33;1.90;;;;;;;;;;5056465;28;20535;-60
2023/09/05 06:36:06;;;;;;;2.40;1.50;;;;;;;;;;5056707;28;20099;-60
2023/09/05 06:38:33;;;;;;;3.25;1.85;;;;;;;;;;5056911;28;20052;-61
2023/09/05 06:41:04;;;;;;;3.17;2.08;;;;;;;;;;5056291;28;20451;-61
2023/09/05 06:43:30;;;;;;;3.13;2.00;;;;;;;;;;5056806;28;20142;-62
2023/09/05 06:46:05;;;;;;;3.25;1.60;;;;;;;;;;5055914;28;20474;-62
2023/09/05 06:48:31;;;;;;;4.50;2.30;;;;;;;;;;5055941;28;20047;-62
2023/09/05 06:50:58;;;;;;;2.13;1.38;;;;;;;;;;5056204;28;20048;-62
2023/09/05 06:53:24;;;;;;;2.85;1.83;;;;;;;;;;5056854;28;20025;-60
2023/09/05 06:55:51;;;;;;;2.38;1.48;;;;;;;;;;5056777;28;20013;-60
2023/09/05 06:58:18;;;;;;;2.90;1.67;;;;;;;;;;5056693;28;20458;-61
2023/09/05 07:00:44;;;;;;;4.50;1.80;;;;;;;;;;5056059;28;20393;-62
2023/09/05 07:03:12;;;;;;;2.70;1.63;;;;;;;;;;5055828;28;20065;-62
2023/09/05 07:05:39;;;;;;;4.72;1.95;;;;;;;;;;5056167;28;20021;-61
2023/09/05 07:08:05;;;;;;;4.22;1.98;;;;;;;;;;5055740;28;20063;-62
2023/09/05 07:10:31;;;;;;;2.80;1.77;;;;;;;;;;5056067;28;20049;-62
2023/09/05 07:12:57;;;;;;;3.38;2.15;;;;;;;;;;5055695;28;20478;-60
2023/09/05 07:15:23;;;;;;;3.65;1.92;;;;;;;;;;5055803;28;20375;-60
2023/09/05 07:17:50;;;;;;;4.82;2.25;;;;;;;;;;5055443;28;20028;-60
2023/09/05 07:20:16;;;;;;;2.85;1.83;;;;;;;;;;5056128;28;20029;-60
2023/09/05 07:22:43;;;;;;;2.55;1.80;;;;;;;;;;5055348;28;20362;-60
2023/09/05 07:25:09;;;;;;;3.13;2.30;;;;;;;;;;5056037;28;20021;-60
2023/09/05 07:27:35;;;;;;;2.88;1.63;;;;;;;;;;5055443;28;20021;-60
2023/09/05 07:30:01;;;;;;;2.30;1.63;;;;;;;;;;5055564;28;20036;-60
2023/09/05 07:32:27;;;;;;;2.60;1.80;;;;;;;;;;5055024;28;20024;-60
2023/09/05 07:34:53;;;;;;;3.10;1.98;;;;;;;;;;5055745;28;20029;-60
2023/09/05 07:37:19;;;;;;;2.17;1.50;;;;;;;;;;5055495;28;20182;-60
2023/09/05 07:39:50;;;;;;;2.78;1.40;;;;;;;;;;5055428;28;20544;-60
2023/09/05 07:42:16;;;;;;;2.75;1.60;;;;;;;;;;5054638;28;20115;-60
2023/09/05 07:44:42;;;;;;;5.07;1.73;;;;;;;;;;5054930;28;20116;-60
2023/09/05 07:47:08;;;;;;;3.33;2.00;;;;;;;;;;5055461;28;20021;-60
2023/09/05 07:49:38;;;;;;;2.65;1.70;;;;;;;;;;5055567;28;20356;-60
2023/09/05 07:52:04;;;;;;;2.72;1.52;;;;;;;;;;5054721;28;20017;-60
2023/09/05 07:54:30;;;;;;;2.35;1.50;;;;;;;;;;5054908;28;20371;-60
2023/09/05 07:56:56;;;;;;;3.00;1.95;;;;;;;;;;5055251;28;20017;-59
2023/09/05 07:59:23;;;;;;;2.22;1.23;;;;;;;;;;5054794;28;20033;-59
2023/09/05 08:01:49;;;;;;;5.22;1.88;;;;;;;;;;5053920;28;20033;-59
2023/09/05 08:04:15;;;;;;;2.88;1.58;;;;;;;;;;5055428;28;20029;-59
2023/09/05 08:06:43;;;;;;;4.68;1.75;;;;;;;;;;5054651;28;20027;-59
2023/09/05 08:09:09;;;;;;;2.42;1.60;;;;;;;;;;5055123;28;20091;-59
2023/09/05 08:11:35;;;;;;;2.63;1.48;;;;;;;;;;5054979;28;20029;-59
2023/09/05 08:14:01;;;;;;;3.20;1.60;;;;;;;;;;5054485;28;20028;-59
2023/09/05 08:16:27;;;;;;;2.75;1.83;;;;;;;;;;5054730;28;20494;-59
2023/09/05 08:18:53;;;;;;;2.53;1.63;;;;;;;;;;5054346;28;20035;-59
2023/09/05 08:21:19;;;;;;;3.63;1.45;;;;;;;;;;5054382;28;20426;-59
2023/09/05 08:23:49;;;;;;;2.80;1.52;;;;;;;;;;5054059;28;20486;-59
2023/09/05 08:26:16;;;;;;;3.35;1.75;;;;;;;;;;5054671;28;20039;-59
2023/09/05 08:28:43;;;;;;;2.30;1.38;;;;;;;;;;5054198;28;20128;-59
2023/09/05 08:31:10;;;;;;;3.90;1.90;;;;;;;;;;5054739;28;20021;-59
2023/09/05 08:33:36;;;;;;;2.35;1.58;;;;;;;;;;5054121;28;20036;-59
2023/09/05 08:36:04;;;;;;;2.38;1.38;;;;;;;;;;5054839;28;20028;-59
2023/09/05 08:38:30;;;;;;;3.50;1.58;;;;;;;;;;5054389;28;20044;-60
2023/09/05 08:41:00;;;;;;;6.72;2.03;;;;;;;;;;5054573;28;20108;-60
2023/09/05 08:43:27;;;;;;;3.00;1.77;;;;;;;;;;5054406;28;20017;-60
2023/09/05 08:45:53;;;;;;;4.00;2.40;;;;;;;;;;5053744;28;20109;-59
2023/09/05 08:48:20;;;;;;;3.08;1.40;;;;;;;;;;5053873;28;20075;-59
2023/09/05 08:50:46;;;;;;;2.10;1.23;;;;;;;;;;5053834;28;20033;-59
2023/09/05 08:53:15;;;;;;;2.47;1.30;;;;;;;;;;5053567;28;20060;-59
2023/09/05 08:55:42;;;;;;;3.58;1.25;;;;;;;;;;5053786;28;20037;-59
2023/09/05 08:58:10;;;;;;;3.05;2.13;;;;;;;;;;5053770;28;20025;-60
2023/09/05 09:00:36;;;;;;;2.10;1.20;;;;;;;;;;5054336;28;20025;-60
2023/09/05 09:03:04;;;;;;;1.98;1.13;;;;;;;;;;5053665;28;20036;-59
2023/09/05 09:05:30;;;;;;;3.50;1.80;;;;;;;;;;5054188;28;20403;-59
2023/09/05 09:07:56;;;;;;;2.83;1.70;;;;;;;;;;5053544;28;20109;-60
2023/09/05 09:10:23;;;;;;;2.90;1.08;;;;;;;;;;5054155;28;20033;-59
2023/09/05 09:13:08;;;;;;;1.58;0.95;;;;;;;;;;5053633;28;20036;-60
2023/09/05 09:15:40;;;;;;;2.30;1.30;;;;;;;;;;5053124;28;20025;-60
2023/09/05 09:18:10;;;;;;;2.80;1.40;;;;;;;;;;5053818;28;20379;-59
2023/09/05 09:20:46;;;;;;;2.60;1.17;;;;;;;;;;5054366;28;20059;-59
2023/09/05 09:23:12;;;;;;;2.80;1.35;;;;;;;;;;5053408;28;20029;-60
2023/09/05 09:25:48;;;;;;;2.15;1.08;;;;;;;;;;5053418;28;20029;-60
2023/09/05 09:28:23;;;;;;;3.50;1.55;;;;;;;;;;5053958;28;20025;-59
2023/09/05 09:30:56;;;;;;;6.10;1.58;;;;;;;;;;5053315;28;20032;-60
2023/09/05 09:33:22;;;;;;;2.40;1.48;;;;;;;;;;5053364;28;20053;-60
2023/09/05 09:36:00;;;;;;;2.88;1.70;;;;;;;;;;5053371;28;20036;-60
2023/09/05 09:38:27;;;;;;;2.60;1.33;;;;;;;;;;5052780;28;20049;-60
2023/09/05 09:40:53;;;;;;;2.33;1.38;;;;;;;;;;5053889;28;20459;-60
2023/09/05 09:43:19;;;;;;;2.67;1.70;;;;;;;;;;5053721;28;20028;-59
2023/09/05 09:45:45;;;;;;;2.42;1.30;;;;;;;;;;5053237;28;20025;-60
2023/09/05 09:48:15;;;;;;;4.75;1.73;;;;;;;;;;5053280;28;20047;-60
2023/09/05 09:50:43;;;;;;;1.65;1.02;;;;;;;;;;5053119;28;20044;-60
2023/09/05 09:53:11;;;;;;;3.08;1.55;;;;;;;;;;5053534;28;20036;-60
2023/09/05 09:55:38;;;;;;;1.95;1.13;;;;;;;;;;5053133;28;20033;-60
2023/09/05 09:58:10;;;;;;;2.17;1.30;;;;;;;;;;5052842;28;20017;-60
2023/09/05 10:00:40;;;;;;;1.92;1.30;;;;;;;;;;5053168;28;20117;-60
2023/09/05 10:03:08;;;;;;;2.38;1.33;;;;;;;;;;5053144;28;20060;-59
2023/09/05 10:05:34;;;;;;;2.08;1.15;;;;;;;;;;5053618;28;20021;-60
2023/09/05 10:08:00;;;;;;;3.50;1.70;;;;;;;;;;5053049;28;20021;-59
2023/09/05 10:10:27;;;;;;;2.42;1.42;;;;;;;;;;5053499;28;20033;-60
2023/09/05 10:12:56;;;;;;;2.13;1.20;;;;;;;;;;5053019;28;20021;-59
2023/09/05 10:15:22;;;;;;;2.65;1.40;;;;;;;;;;5053790;28;20032;-60
2023/09/05 10:17:52;;;;;;;2.90;1.52;;;;;;;;;;5052617;28;20502;-60
2023/09/05 10:20:19;;;;;;;1.70;0.98;;;;;;;;;;5053573;28;20033;-60
2023/09/05 10:22:46;;;;;;;2.47;1.50;;;;;;;;;;5053746;28;20060;-60
2023/09/05 10:25:13;;;;;;;2.28;1.17;;;;;;;;;;5056525;28;20031;-60
2023/09/05 10:27:39;;;;;;;2.40;1.30;;;;;;;;;;5056633;28;20378;-60
2023/09/05 10:30:06;;;;;;;2.38;1.40;;;;;;;;;;5056600;28;20029;-60
2023/09/05 10:32:32;;;;;;;2.53;1.35;;;;;;;;;;5056658;28;20040;-59
2023/09/05 10:35:01;;;;;;;1.83;1.15;;;;;;;;;;5056342;28;20044;-60
2023/09/05 10:37:33;;;;;;;2.20;1.27;;;;;;;;;;5056959;28;20502;-60
2023/09/05 10:40:06;;;;;;;3.00;1.42;;;;;;;;;;5057165;28;20104;-60
2023/09/05 10:42:33;;;;;;;1.95;1.10;;;;;;;;;;5056837;28;20059;-60
2023/09/05 10:45:19;;;;;;;3.03;1.20;;;;;;;;;;5056136;28;20071;-60
2023/09/05 10:47:47;;;;;;;2.42;1.35;;;;;;;;;;5055614;28;20079;-60
2023/09/05 10:50:19;;;;;;;2.83;1.20;;;;;;;;;;5056330;28;20040;-60
2023/09/05 10:52:49;;;;;;;1.73;0.90;;;;;;;;;;5056644;28;20032;-60
2023/09/05 10:55:32;;;;;;;2.03;1.02;;;;;;;;;;5056856;28;20100;-60
2023/09/05 10:57:58;;;;;;;2.53;1.10;;;;;;;;;;5056827;28;20100;-60
2023/09/05 11:00:29;;;;;;;2.40;1.15;;;;;;;;;;5056007;28;20498;-60
2023/09/05 11:03:12;;;;;;;1.73;0.82;;;;;;;;;;5056369;28;20115;-60
2023/09/05 11:05:39;;;;;;;2.63;1.38;;;;;;;;;;5056426;28;20029;-59
2023/09/05 11:08:05;;;;;;;1.80;1.05;;;;;;;;;;5056339;28;20407;-60
2023/09/05 11:10:33;;;;;;;2.35;1.13;;;;;;;;;;5056566;28;20033;-60
2023/09/05 11:13:10;;;;;;;2.50;1.35;;;;;;;;;;5055743;28;20068;-60
2023/09/05 11:15:37;;;;;;;2.35;1.23;;;;;;;;;;5056142;28;20053;-60
2023/09/05 11:18:05;;;;;;;2.38;1.25;;;;;;;;;;5055812;28;20078;-60
2023/09/05 11:20:47;;;;;;;1.95;1.30;;;;;;;;;;5055325;28;20490;-60
2023/09/05 11:23:17;;;;;;;2.38;1.17;;;;;;;;;;5055492;28;20046;-60
2023/09/05 11:25:50;;;;;;;1.77;0.90;;;;;;;;;;5055766;28;20025;-60
2023/09/05 11:28:17;;;;;;;2.17;0.95;;;;;;;;;;5055363;28;20082;-60
2023/09/05 11:30:46;;;;;;;8.85;1.55;;;;;;;;;;5055829;28;20040;-60
2023/09/05 11:33:14;;;;;;;2.17;1.33;;;;;;;;;;5055352;28;20021;-59
2023/09/05 11:35:43;;;;;;;2.67;1.63;;;;;;;;;;5054158;28;20258;-60
2023/09/05 11:38:10;;;;;;;2.00;1.23;;;;;;;;;;5055805;28;20044;-60
2023/09/05 11:40:38;;;;;;;4.43;1.13;;;;;;;;;;5055589;28;20463;-60
2023/09/05 11:43:08;;;;;;;2.00;1.10;;;;;;;;;;5054720;28;20029;-60
2023/09/05 11:45:35;;;;;;;2.38;1.27;;;;;;;;;;5055574;28;20017;-60
2023/09/05 11:48:02;;;;;;;2.70;1.13;;;;;;;;;;5054828;28;20029;-60
2023/09/05 11:50:28;;;;;;;2.50;1.35;;;;;;;;;;5055185;28;20379;-60
2023/09/05 11:52:55;;;;;;;2.15;1.10;;;;;;;;;;5054947;28;20112;-60
2023/09/05 11:55:21;;;;;;;2.38;1.10;;;;;;;;;;5055364;28;20017;-60
2023/09/05 11:57:50;;;;;;;2.30;1.05;;;;;;;;;;5054468;28;20424;-60
2023/09/05 12:00:16;;;;;;;2.03;1.20;;;;;;;;;;5055553;28;20067;-60
2023/09/05 12:02:42;;;;;;;2.22;1.13;;;;;;;;;;5054853;28;20025;-60
2023/09/05 12:05:12;;;;;;;2.10;1.15;;;;;;;;;;5054917;28;20025;-60
2023/09/05 12:07:38;;;;;;;2.35;1.15;;;;;;;;;;5054616;28;20024;-60
2023/09/05 12:10:04;;;;;;;2.58;1.33;;;;;;;;;;5054774;28;20041;-60
2023/09/05 12:12:30;;;;;;;2.00;1.38;;;;;;;;;;5054992;28;20021;-60
2023/09/05 12:14:57;;;;;;;1.65;1.08;;;;;;;;;;5055233;28;20368;-60
2023/09/05 12:17:24;;;;;;;1.10;0.60;;;;;;;;;;5054128;28;20032;-60
2023/09/05 12:19:51;;;;;;;4.95;1.13;;;;;;;;;;5054790;28;20025;-60
2023/09/05 12:22:20;;;;;;;3.05;1.17;;;;;;;;;;5054325;28;20091;-60
2023/09/05 12:24:46;;;;;;;1.77;1.00;;;;;;;;;;5054092;28;20025;-60
2023/09/05 12:27:25;;;;;;;2.05;0.80;;;;;;;;;;5054305;28;20027;-59
2023/09/05 12:29:55;;;;;;;2.70;1.17;;;;;;;;;;5054499;28;20064;-60
2023/09/05 12:32:23;;;;;;;;;;;;;;;;;;5054606;28;20055;-60
2023/09/05 12:34:48;;;;;;;2.15;1.02;;;;;;;;;;5054411;28;19905;-60
2023/09/05 12:37:14;;;;;;;2.15;1.00;;;;;;;;;;5053553;28;20045;-60
2023/09/05 12:39:40;;;;;;;1.92;0.80;;;;;;;;;;5054377;28;20093;-60
2023/09/05 12:42:09;;;;;;;2.00;1.05;;;;;;;;;;5054232;28;20023;-60
2023/09/05 12:44:35;;;;;;;1.60;0.80;;;;;;;;;;5053684;28;20410;-60
2023/09/05 12:47:04;;;;;;;1.35;0.70;;;;;;;;;;5054426;28;20029;-60
2023/09/05 12:49:33;;;;;;;2.75;1.10;;;;;;;;;;5053894;28;20033;-60
2023/09/05 12:51:59;;;;;;;1.85;0.90;;;;;;;;;;5053673;28;20021;-60
2023/09/05 12:54:26;;;;;;;1.30;0.75;;;;;;;;;;5053971;28;20028;-60
2023/09/05 12:56:54;;;;;;;1.98;1.05;;;;;;;;;;5053784;28;20041;-60
2023/09/05 12:59:21;;;;;;;2.25;1.10;;;;;;;;;;5054366;28;20114;-60
2023/09/05 13:01:48;;;;;;;3.15;1.10;;;;;;;;;;5054607;28;20029;-60
2023/09/05 13:04:14;;;;;;;1.55;0.80;;;;;;;;;;5054266;28;20029;-60
2023/09/05 13:06:42;;;;;;;1.88;0.88;;;;;;;;;;5053713;28;20025;-60
2023/09/05 13:09:08;;;;;;;1.75;1.00;;;;;;;;;;5054444;28;20029;-60
2023/09/05 13:11:34;;;;;;;2.28;0.90;;;;;;;;;;5053913;28;20108;-60
2023/09/05 13:14:00;;;;;;;1.35;0.68;;;;;;;;;;5053926;28;20517;-60
2023/09/05 13:16:26;;;;;;;1.60;0.82;;;;;;;;;;5053524;28;20056;-60
2023/09/05 13:18:51;;;;;;;2.20;1.00;;;;;;;;;;5053446;28;20431;-60
2023/09/05 13:21:17;;;;;;;1.80;0.85;;;;;;;;;;5053227;28;20360;-60
2023/09/05 13:23:43;;;;;;;2.63;1.20;;;;;;;;;;5053634;28;20024;-60
2023/09/05 13:26:09;;;;;;;1.80;1.10;;;;;;;;;;5054019;28;20020;-60
2023/09/05 13:28:35;;;;;;;3.25;1.00;;;;;;;;;;5053362;28;20368;-60
2023/09/05 13:31:01;;;;;;;1.38;0.80;;;;;;;;;;5053669;28;20090;-60
2023/09/05 13:33:27;;;;;;;1.25;0.90;;;;;;;;;;5053919;28;20028;-60
2023/09/05 13:35:53;;;;;;;1.85;1.05;;;;;;;;;;5054181;28;20044;-60
2023/09/05 13:38:19;;;;;;;2.03;1.05;;;;;;;;;;5054160;28;20124;-60
2023/09/05 13:40:45;;;;;;;2.28;1.05;;;;;;;;;;5053235;28;20035;-60
2023/09/05 13:43:12;;;;;;;2.33;1.08;;;;;;;;;;5052970;28;20029;-60
2023/09/05 13:45:38;;;;;;;2.20;0.82;;;;;;;;;;5053210;28;20017;-60
2023/09/05 13:48:07;;;;;;;1.85;0.90;;;;;;;;;;5053255;28;20060;-60
2023/09/05 13:50:32;;;;;;;1.90;0.93;;;;;;;;;;5053547;28;20033;-60
2023/09/05 13:52:58;;;;;;;2.63;1.05;;;;;;;;;;5052912;28;20017;-60
2023/09/05 13:55:24;;;;;;;1.40;0.85;;;;;;;;;;5053189;28;20366;-60
2023/09/05 13:57:50;;;;;;;1.98;0.85;;;;;;;;;;5053719;28;20075;-60
2023/09/05 14:00:18;;;;;;;1.23;0.70;;;;;;;;;;5057620;28;20029;-60
2023/09/05 14:02:44;;;;;;;1.65;0.82;;;;;;;;;;5057798;28;20029;-60
2023/09/05 14:05:10;;;;;;;1.70;1.05;;;;;;;;;;5057457;28;20021;-60
2023/09/05 14:07:40;;;;;;;2.05;1.25;;;;;;;;;;5057082;28;20028;-60
2023/09/05 14:10:06;;;;;;;2.28;0.98;;;;;;;;;;5057715;28;20084;-60
2023/09/05 14:12:32;;;;;;;1.63;0.90;;;;;;;;;;5056900;28;20025;-60
2023/09/05 14:14:58;;;;;;;2.05;0.90;;;;;;;;;;5056831;28;20021;-60
2023/09/05 14:17:24;;;;;;;1.02;0.50;;;;;;;;;;5056744;28;20062;-60
2023/09/05 14:19:50;;;;;;;4.38;1.02;;;;;;;;;;5057143;28;20032;-60
2023/09/05 14:22:16;;;;;;;1.67;0.63;;;;;;;;;;5056757;28;20120;-58
2023/09/05 14:24:42;;;;;;;1.55;0.98;;;;;;;;;;5056940;28;20099;-60
2023/09/05 14:27:08;;;;;;;1.17;0.65;;;;;;;;;;5056388;28;20488;-60
2023/09/05 14:29:34;;;;;;;1.77;0.90;;;;;;;;;;5057044;28;20390;-60
2023/09/05 14:31:59;;;;;;;1.30;0.70;;;;;;;;;;5056272;28;20027;-59
2023/09/05 14:34:25;;;;;;;2.35;1.15;;;;;;;;;;5056763;28;20018;-60
2023/09/05 14:36:53;;;;;;;2.10;1.25;;;;;;;;;;5056146;28;20059;-60
2023/09/05 14:39:19;;;;;;;1.55;0.68;;;;;;;;;;5056638;28;20448;-60
2023/09/05 14:41:45;;;;;;;2.50;1.30;;;;;;;;;;5056356;28;20060;-60